sensor_id;sensor_type;location;lat;lon;timestamp;P1;durP1;ratioP1;P2;durP2;ratioP2
7965;SDS011;4028;43.272;26.932;2024-03-23T00:56:10;11.00;;;8.63;;
7965;SDS011;4028;43.272;26.932;2024-03-23T00:58:35;10.95;;;8.60;;
7965;SDS011;4028;43.272;26.932;2024-03-23T01:01:01;10.77;;;8.07;;
7965;SDS011;4028;43.272;26.932;2024-03-23T01:03:28;12.30;;;8.17;;
7965;SDS011;4028;43.272;26.932;2024-03-23T01:05:54;11.87;;;8.60;;
7965;SDS011;4028;43.272;26.932;2024-03-23T01:08:19;11.33;;;8.50;;
7965;SDS011;4028;43.272;26.932;2024-03-23T01:10:57;11.93;;;9.00;;
7965;SDS011;4028;43.272;26.932;2024-03-23T01:13:24;9.30;;;6.73;;
7965;SDS011;4028;43.272;26.932;2024-03-23T01:15:53;10.23;;;7.17;;
7965;SDS011;4028;43.272;26.932;2024-03-23T01:18:21;9.80;;;7.17;;
7965;SDS011;4028;43.272;26.932;2024-03-23T01:20:47;9.13;;;7.23;;
7965;SDS011;4028;43.272;26.932;2024-03-23T01:23:13;10.57;;;8.20;;
7965;SDS011;4028;43.272;26.932;2024-03-23T01:25:39;9.60;;;7.70;;
7965;SDS011;4028;43.272;26.932;2024-03-23T01:28:04;10.80;;;7.90;;
7965;SDS011;4028;43.272;26.932;2024-03-23T01:30:31;9.87;;;7.73;;
7965;SDS011;4028;43.272;26.932;2024-03-23T01:32:57;10.93;;;8.93;;
7965;SDS011;4028;43.272;26.932;2024-03-23T01:35:23;11.13;;;8.50;;
7965;SDS011;4028;43.272;26.932;2024-03-23T01:37:48;10.70;;;8.17;;
7965;SDS011;4028;43.272;26.932;2024-03-23T01:40:14;11.97;;;9.17;;
7965;SDS011;4028;43.272;26.932;2024-03-23T01:42:41;12.97;;;9.50;;
7965;SDS011;4028;43.272;26.932;2024-03-23T01:45:07;12.60;;;9.77;;
7965;SDS011;4028;43.272;26.932;2024-03-23T01:47:33;13.90;;;9.90;;
7965;SDS011;4028;43.272;26.932;2024-03-23T01:49:59;14.17;;;10.70;;
7965;SDS011;4028;43.272;26.932;2024-03-23T01:52:25;13.53;;;10.90;;
7965;SDS011;4028;43.272;26.932;2024-03-23T01:54:52;17.33;;;10.80;;
7965;SDS011;4028;43.272;26.932;2024-03-23T01:57:18;16.03;;;11.43;;
7965;SDS011;4028;43.272;26.932;2024-03-23T01:59:46;14.20;;;9.93;;
7965;SDS011;4028;43.272;26.932;2024-03-23T02:02:12;15.30;;;10.67;;
7965;SDS011;4028;43.272;26.932;2024-03-23T02:04:37;15.27;;;10.73;;
7965;SDS011;4028;43.272;26.932;2024-03-23T02:07:03;13.13;;;10.60;;
7965;SDS011;4028;43.272;26.932;2024-03-23T02:09:30;19.73;;;10.70;;
7965;SDS011;4028;43.272;26.932;2024-03-23T02:11:56;17.20;;;11.40;;
7965;SDS011;4028;43.272;26.932;2024-03-23T02:14:22;19.10;;;11.73;;
7965;SDS011;4028;43.272;26.932;2024-03-23T02:16:47;18.10;;;12.93;;
7965;SDS011;4028;43.272;26.932;2024-03-23T02:19:13;16.90;;;12.20;;
7965;SDS011;4028;43.272;26.932;2024-03-23T02:21:38;17.70;;;12.27;;
7965;SDS011;4028;43.272;26.932;2024-03-23T02:24:04;19.27;;;12.70;;
7965;SDS011;4028;43.272;26.932;2024-03-23T02:26:29;21.63;;;12.67;;
7965;SDS011;4028;43.272;26.932;2024-03-23T02:28:55;17.23;;;11.67;;
7965;SDS011;4028;43.272;26.932;2024-03-23T02:31:20;22.77;;;12.30;;
7965;SDS011;4028;43.272;26.932;2024-03-23T02:33:46;23.05;;;12.80;;
7965;SDS011;4028;43.272;26.932;2024-03-23T02:36:11;18.77;;;13.00;;
7965;SDS011;4028;43.272;26.932;2024-03-23T02:38:37;16.07;;;11.97;;
7965;SDS011;4028;43.272;26.932;2024-03-23T02:41:03;20.03;;;13.23;;
7965;SDS011;4028;43.272;26.932;2024-03-23T02:43:29;19.97;;;13.17;;
7965;SDS011;4028;43.272;26.932;2024-03-23T02:45:54;20.73;;;12.87;;
7965;SDS011;4028;43.272;26.932;2024-03-23T02:48:20;21.03;;;14.67;;
7965;SDS011;4028;43.272;26.932;2024-03-23T02:50:45;19.17;;;13.47;;
7965;SDS011;4028;43.272;26.932;2024-03-23T02:53:11;18.53;;;14.10;;
7965;SDS011;4028;43.272;26.932;2024-03-23T02:55:36;19.63;;;13.80;;
7965;SDS011;4028;43.272;26.932;2024-03-23T02:58:01;21.03;;;15.00;;
7965;SDS011;4028;43.272;26.932;2024-03-23T03:00:28;24.40;;;15.27;;
7965;SDS011;4028;43.272;26.932;2024-03-23T03:02:54;21.63;;;14.63;;
7965;SDS011;4028;43.272;26.932;2024-03-23T03:05:19;20.27;;;13.33;;
7965;SDS011;4028;43.272;26.932;2024-03-23T03:07:45;19.50;;;13.90;;
7965;SDS011;4028;43.272;26.932;2024-03-23T03:10:10;21.40;;;14.83;;
7965;SDS011;4028;43.272;26.932;2024-03-23T03:12:36;18.57;;;14.57;;
7965;SDS011;4028;43.272;26.932;2024-03-23T03:15:03;21.03;;;13.43;;
7965;SDS011;4028;43.272;26.932;2024-03-23T03:17:31;18.77;;;13.87;;
7965;SDS011;4028;43.272;26.932;2024-03-23T03:19:57;21.67;;;14.97;;
7965;SDS011;4028;43.272;26.932;2024-03-23T03:22:22;21.63;;;16.90;;
7965;SDS011;4028;43.272;26.932;2024-03-23T03:24:48;23.60;;;16.90;;
7965;SDS011;4028;43.272;26.932;2024-03-23T03:27:13;36.97;;;19.73;;
7965;SDS011;4028;43.272;26.932;2024-03-23T03:29:39;27.33;;;19.27;;
7965;SDS011;4028;43.272;26.932;2024-03-23T03:32:05;28.57;;;20.80;;
7965;SDS011;4028;43.272;26.932;2024-03-23T03:34:30;28.10;;;20.60;;
7965;SDS011;4028;43.272;26.932;2024-03-23T03:36:56;29.50;;;21.20;;
7965;SDS011;4028;43.272;26.932;2024-03-23T03:39:22;30.03;;;21.10;;
7965;SDS011;4028;43.272;26.932;2024-03-23T03:41:49;28.83;;;20.00;;
7965;SDS011;4028;43.272;26.932;2024-03-23T03:44:14;27.60;;;19.57;;
7965;SDS011;4028;43.272;26.932;2024-03-23T03:46:40;24.57;;;18.57;;
7965;SDS011;4028;43.272;26.932;2024-03-23T03:49:05;24.10;;;19.53;;
7965;SDS011;4028;43.272;26.932;2024-03-23T03:51:31;25.73;;;18.03;;
7965;SDS011;4028;43.272;26.932;2024-03-23T03:53:56;26.07;;;18.17;;
7965;SDS011;4028;43.272;26.932;2024-03-23T03:56:22;24.70;;;17.10;;
7965;SDS011;4028;43.272;26.932;2024-03-23T03:58:47;25.90;;;17.00;;
7965;SDS011;4028;43.272;26.932;2024-03-23T04:01:13;22.95;;;16.40;;
7965;SDS011;4028;43.272;26.932;2024-03-23T04:03:39;25.17;;;17.43;;
7965;SDS011;4028;43.272;26.932;2024-03-23T04:06:09;25.90;;;17.03;;
7965;SDS011;4028;43.272;26.932;2024-03-23T04:08:34;26.60;;;15.97;;
7965;SDS011;4028;43.272;26.932;2024-03-23T04:11:00;17.87;;;13.60;;
7965;SDS011;4028;43.272;26.932;2024-03-23T04:13:26;22.70;;;15.33;;
7965;SDS011;4028;43.272;26.932;2024-03-23T04:15:54;21.43;;;13.23;;
7965;SDS011;4028;43.272;26.932;2024-03-23T04:18:20;17.50;;;12.43;;
7965;SDS011;4028;43.272;26.932;2024-03-23T04:20:47;19.57;;;12.97;;
7965;SDS011;4028;43.272;26.932;2024-03-23T04:23:13;17.73;;;12.40;;
7965;SDS011;4028;43.272;26.932;2024-03-23T04:25:38;19.75;;;12.50;;
7965;SDS011;4028;43.272;26.932;2024-03-23T04:28:04;16.87;;;12.47;;
7965;SDS011;4028;43.272;26.932;2024-03-23T04:30:30;16.10;;;11.37;;
7965;SDS011;4028;43.272;26.932;2024-03-23T04:32:56;23.97;;;13.67;;
7965;SDS011;4028;43.272;26.932;2024-03-23T04:35:23;24.00;;;14.00;;
7965;SDS011;4028;43.272;26.932;2024-03-23T04:37:50;15.60;;;10.23;;
7965;SDS011;4028;43.272;26.932;2024-03-23T04:40:17;11.50;;;7.90;;
7965;SDS011;4028;43.272;26.932;2024-03-23T04:42:43;10.23;;;6.83;;
7965;SDS011;4028;43.272;26.932;2024-03-23T04:45:09;13.03;;;9.37;;
7965;SDS011;4028;43.272;26.932;2024-03-23T04:47:36;14.90;;;9.30;;
7965;SDS011;4028;43.272;26.932;2024-03-23T04:50:03;16.67;;;9.23;;
7965;SDS011;4028;43.272;26.932;2024-03-23T04:52:29;15.10;;;8.30;;
7965;SDS011;4028;43.272;26.932;2024-03-23T04:54:54;12.03;;;9.13;;
7965;SDS011;4028;43.272;26.932;2024-03-23T04:57:20;17.93;;;10.60;;
7965;SDS011;4028;43.272;26.932;2024-03-23T04:59:46;22.40;;;12.93;;
7965;SDS011;4028;43.272;26.932;2024-03-23T05:02:12;19.40;;;12.83;;
7965;SDS011;4028;43.272;26.932;2024-03-23T05:04:38;22.97;;;12.53;;
7965;SDS011;4028;43.272;26.932;2024-03-23T05:07:03;23.13;;;13.53;;
7965;SDS011;4028;43.272;26.932;2024-03-23T05:09:32;22.50;;;14.20;;
7965;SDS011;4028;43.272;26.932;2024-03-23T05:11:58;17.47;;;12.33;;
7965;SDS011;4028;43.272;26.932;2024-03-23T05:14:26;19.10;;;13.57;;
7965;SDS011;4028;43.272;26.932;2024-03-23T05:16:52;17.95;;;14.35;;
7965;SDS011;4028;43.272;26.932;2024-03-23T05:19:18;19.30;;;13.30;;
7965;SDS011;4028;43.272;26.932;2024-03-23T05:21:43;15.53;;;13.00;;
7965;SDS011;4028;43.272;26.932;2024-03-23T05:24:09;17.33;;;13.67;;
7965;SDS011;4028;43.272;26.932;2024-03-23T05:26:35;20.97;;;14.37;;
7965;SDS011;4028;43.272;26.932;2024-03-23T05:29:01;20.50;;;14.70;;
7965;SDS011;4028;43.272;26.932;2024-03-23T05:31:27;22.40;;;16.13;;
7965;SDS011;4028;43.272;26.932;2024-03-23T05:33:55;19.93;;;15.43;;
7965;SDS011;4028;43.272;26.932;2024-03-23T05:36:20;20.83;;;15.03;;
7965;SDS011;4028;43.272;26.932;2024-03-23T05:38:46;20.57;;;15.87;;
7965;SDS011;4028;43.272;26.932;2024-03-23T05:41:13;21.07;;;15.83;;
7965;SDS011;4028;43.272;26.932;2024-03-23T05:43:38;18.80;;;14.17;;
7965;SDS011;4028;43.272;26.932;2024-03-23T05:46:04;21.80;;;15.20;;
7965;SDS011;4028;43.272;26.932;2024-03-23T05:48:30;21.57;;;16.00;;
7965;SDS011;4028;43.272;26.932;2024-03-23T05:50:56;20.17;;;16.40;;
7965;SDS011;4028;43.272;26.932;2024-03-23T05:53:22;22.93;;;16.90;;
7965;SDS011;4028;43.272;26.932;2024-03-23T05:55:49;21.73;;;16.60;;
7965;SDS011;4028;43.272;26.932;2024-03-23T05:58:15;21.00;;;16.07;;
7965;SDS011;4028;43.272;26.932;2024-03-23T06:00:41;22.50;;;15.67;;
7965;SDS011;4028;43.272;26.932;2024-03-23T06:03:07;24.97;;;15.63;;
7965;SDS011;4028;43.272;26.932;2024-03-23T06:05:33;21.27;;;15.50;;
7965;SDS011;4028;43.272;26.932;2024-03-23T06:07:58;18.73;;;15.33;;
7965;SDS011;4028;43.272;26.932;2024-03-23T06:10:24;21.43;;;14.60;;
7965;SDS011;4028;43.272;26.932;2024-03-23T06:12:49;18.23;;;13.83;;
7965;SDS011;4028;43.272;26.932;2024-03-23T06:15:17;17.90;;;13.47;;
7965;SDS011;4028;43.272;26.932;2024-03-23T06:17:43;19.43;;;15.53;;
7965;SDS011;4028;43.272;26.932;2024-03-23T06:20:09;19.40;;;15.10;;
7965;SDS011;4028;43.272;26.932;2024-03-23T06:22:35;18.50;;;15.40;;
7965;SDS011;4028;43.272;26.932;2024-03-23T06:25:01;19.53;;;14.77;;
7965;SDS011;4028;43.272;26.932;2024-03-23T06:27:26;19.40;;;14.87;;
7965;SDS011;4028;43.272;26.932;2024-03-23T06:29:52;20.07;;;14.53;;
7965;SDS011;4028;43.272;26.932;2024-03-23T06:32:17;17.57;;;13.50;;
7965;SDS011;4028;43.272;26.932;2024-03-23T06:34:43;20.00;;;13.07;;
7965;SDS011;4028;43.272;26.932;2024-03-23T06:37:09;17.97;;;12.47;;
7965;SDS011;4028;43.272;26.932;2024-03-23T06:39:36;16.70;;;11.93;;
7965;SDS011;4028;43.272;26.932;2024-03-23T06:42:02;14.23;;;12.73;;
7965;SDS011;4028;43.272;26.932;2024-03-23T06:44:27;15.00;;;11.57;;
7965;SDS011;4028;43.272;26.932;2024-03-23T06:46:53;15.13;;;11.97;;
7965;SDS011;4028;43.272;26.932;2024-03-23T06:49:18;14.73;;;12.37;;
7965;SDS011;4028;43.272;26.932;2024-03-23T06:51:44;12.50;;;11.20;;
7965;SDS011;4028;43.272;26.932;2024-03-23T06:54:11;17.13;;;12.60;;
7965;SDS011;4028;43.272;26.932;2024-03-23T06:56:36;16.00;;;13.13;;
7965;SDS011;4028;43.272;26.932;2024-03-23T06:59:02;15.60;;;12.03;;
7965;SDS011;4028;43.272;26.932;2024-03-23T07:01:27;15.90;;;12.53;;
7965;SDS011;4028;43.272;26.932;2024-03-23T07:03:54;14.83;;;12.67;;
7965;SDS011;4028;43.272;26.932;2024-03-23T07:06:19;14.97;;;12.30;;
7965;SDS011;4028;43.272;26.932;2024-03-23T07:08:45;14.60;;;11.53;;
7965;SDS011;4028;43.272;26.932;2024-03-23T07:11:10;17.23;;;12.47;;
7965;SDS011;4028;43.272;26.932;2024-03-23T07:13:36;14.57;;;12.80;;
7965;SDS011;4028;43.272;26.932;2024-03-23T07:16:01;18.33;;;13.10;;
7965;SDS011;4028;43.272;26.932;2024-03-23T07:18:27;17.77;;;13.18;;
7965;SDS011;4028;43.272;26.932;2024-03-23T07:20:53;16.98;;;12.32;;
7965;SDS011;4028;43.272;26.932;2024-03-23T07:23:19;18.38;;;13.05;;
7965;SDS011;4028;43.272;26.932;2024-03-23T07:25:45;15.07;;;13.50;;
7965;SDS011;4028;43.272;26.932;2024-03-23T07:28:10;18.73;;;13.70;;
7965;SDS011;4028;43.272;26.932;2024-03-23T07:30:36;17.67;;;13.32;;
7965;SDS011;4028;43.272;26.932;2024-03-23T07:33:01;20.80;;;13.88;;
7965;SDS011;4028;43.272;26.932;2024-03-23T07:35:27;17.23;;;13.50;;
7965;SDS011;4028;43.272;26.932;2024-03-23T07:37:52;19.02;;;14.10;;
7965;SDS011;4028;43.272;26.932;2024-03-23T07:40:18;17.92;;;12.85;;
7965;SDS011;4028;43.272;26.932;2024-03-23T07:42:43;15.35;;;13.20;;
7965;SDS011;4028;43.272;26.932;2024-03-23T07:45:09;17.98;;;12.90;;
7965;SDS011;4028;43.272;26.932;2024-03-23T07:47:35;14.43;;;12.93;;
7965;SDS011;4028;43.272;26.932;2024-03-23T07:50:01;12.25;;;11.05;;
7965;SDS011;4028;43.272;26.932;2024-03-23T07:52:29;11.25;;;10.15;;
7965;SDS011;4028;43.272;26.932;2024-03-23T07:54:54;11.57;;;10.35;;
7965;SDS011;4028;43.272;26.932;2024-03-23T07:57:20;11.18;;;9.80;;
7965;SDS011;4028;43.272;26.932;2024-03-23T07:59:46;10.82;;;9.73;;
7965;SDS011;4028;43.272;26.932;2024-03-23T08:02:11;11.27;;;9.75;;
7965;SDS011;4028;43.272;26.932;2024-03-23T08:04:37;10.57;;;8.73;;
7965;SDS011;4028;43.272;26.932;2024-03-23T08:07:02;10.63;;;9.23;;
7965;SDS011;4028;43.272;26.932;2024-03-23T08:09:28;10.82;;;9.68;;
7965;SDS011;4028;43.272;26.932;2024-03-23T08:11:54;11.63;;;9.27;;
7965;SDS011;4028;43.272;26.932;2024-03-23T08:14:19;10.02;;;9.02;;
7965;SDS011;4028;43.272;26.932;2024-03-23T08:17:03;9.98;;;8.43;;
7965;SDS011;4028;43.272;26.932;2024-03-23T08:19:29;10.30;;;9.30;;
7965;SDS011;4028;43.272;26.932;2024-03-23T08:21:55;9.45;;;8.45;;
7965;SDS011;4028;43.272;26.932;2024-03-23T08:24:20;9.70;;;8.70;;
7965;SDS011;4028;43.272;26.932;2024-03-23T08:26:46;9.63;;;7.82;;
7965;SDS011;4028;43.272;26.932;2024-03-23T08:29:11;9.38;;;8.25;;
7965;SDS011;4028;43.272;26.932;2024-03-23T08:31:37;9.30;;;8.32;;
7965;SDS011;4028;43.272;26.932;2024-03-23T08:34:02;13.88;;;7.80;;
7965;SDS011;4028;43.272;26.932;2024-03-23T08:36:28;10.13;;;7.65;;
7965;SDS011;4028;43.272;26.932;2024-03-23T08:38:54;8.07;;;7.03;;
7965;SDS011;4028;43.272;26.932;2024-03-23T08:41:20;8.30;;;7.45;;
7965;SDS011;4028;43.272;26.932;2024-03-23T08:43:45;8.30;;;7.40;;
7965;SDS011;4028;43.272;26.932;2024-03-23T08:46:15;7.88;;;7.18;;
7965;SDS011;4028;43.272;26.932;2024-03-23T08:48:42;7.97;;;7.28;;
7965;SDS011;4028;43.272;26.932;2024-03-23T08:51:09;7.50;;;6.82;;
7965;SDS011;4028;43.272;26.932;2024-03-23T08:53:35;7.75;;;6.95;;
7965;SDS011;4028;43.272;26.932;2024-03-23T08:56:03;6.72;;;6.13;;
7965;SDS011;4028;43.272;26.932;2024-03-23T08:58:30;6.55;;;5.95;;
7965;SDS011;4028;43.272;26.932;2024-03-23T09:01:02;6.82;;;6.10;;
7965;SDS011;4028;43.272;26.932;2024-03-23T09:03:35;6.65;;;6.03;;
7965;SDS011;4028;43.272;26.932;2024-03-23T09:06:02;14.73;;;5.20;;
7965;SDS011;4028;43.272;26.932;2024-03-23T09:08:31;8.30;;;6.20;;
7965;SDS011;4028;43.272;26.932;2024-03-23T09:10:57;7.22;;;6.05;;
7965;SDS011;4028;43.272;26.932;2024-03-23T09:13:22;6.45;;;5.30;;
7965;SDS011;4028;43.272;26.932;2024-03-23T09:15:51;6.25;;;4.90;;
7965;SDS011;4028;43.272;26.932;2024-03-23T09:18:19;5.90;;;4.75;;
7965;SDS011;4028;43.272;26.932;2024-03-23T09:20:44;4.47;;;4.15;;
7965;SDS011;4028;43.272;26.932;2024-03-23T09:23:10;4.55;;;4.18;;
7965;SDS011;4028;43.272;26.932;2024-03-23T09:25:36;4.80;;;4.40;;
7965;SDS011;4028;43.272;26.932;2024-03-23T09:28:03;5.97;;;4.38;;
7965;SDS011;4028;43.272;26.932;2024-03-23T09:30:28;5.10;;;4.00;;
7965;SDS011;4028;43.272;26.932;2024-03-23T09:32:54;5.93;;;4.38;;
7965;SDS011;4028;43.272;26.932;2024-03-23T09:35:19;4.32;;;3.95;;
7965;SDS011;4028;43.272;26.932;2024-03-23T09:37:45;4.90;;;4.15;;
7965;SDS011;4028;43.272;26.932;2024-03-23T09:40:10;4.80;;;4.03;;
7965;SDS011;4028;43.272;26.932;2024-03-23T09:42:36;4.55;;;4.15;;
7965;SDS011;4028;43.272;26.932;2024-03-23T09:45:02;5.00;;;4.10;;
7965;SDS011;4028;43.272;26.932;2024-03-23T09:47:32;4.72;;;4.32;;
7965;SDS011;4028;43.272;26.932;2024-03-23T09:49:58;6.05;;;4.45;;
7965;SDS011;4028;43.272;26.932;2024-03-23T09:52:25;5.43;;;4.95;;
7965;SDS011;4028;43.272;26.932;2024-03-23T09:54:51;4.72;;;4.32;;
7965;SDS011;4028;43.272;26.932;2024-03-23T09:57:16;7.03;;;5.00;;
7965;SDS011;4028;43.272;26.932;2024-03-23T09:59:42;7.13;;;4.80;;
7965;SDS011;4028;43.272;26.932;2024-03-23T10:02:08;5.07;;;4.40;;
7965;SDS011;4028;43.272;26.932;2024-03-23T10:04:36;7.90;;;4.80;;
7965;SDS011;4028;43.272;26.932;2024-03-23T10:07:14;5.95;;;4.43;;
7965;SDS011;4028;43.272;26.932;2024-03-23T10:09:43;5.50;;;4.90;;
7965;SDS011;4028;43.272;26.932;2024-03-23T10:12:10;5.38;;;4.88;;
7965;SDS011;4028;43.272;26.932;2024-03-23T10:14:40;5.25;;;4.68;;
7965;SDS011;4028;43.272;26.932;2024-03-23T10:17:19;5.88;;;5.10;;
7965;SDS011;4028;43.272;26.932;2024-03-23T10:19:49;5.32;;;4.82;;
7965;SDS011;4028;43.272;26.932;2024-03-23T10:22:19;6.53;;;5.22;;
7965;SDS011;4028;43.272;26.932;2024-03-23T10:24:46;4.63;;;4.22;;
7965;SDS011;4028;43.272;26.932;2024-03-23T10:27:16;5.30;;;4.80;;
7965;SDS011;4028;43.272;26.932;2024-03-23T10:29:46;5.40;;;4.90;;
7965;SDS011;4028;43.272;26.932;2024-03-23T10:32:12;4.97;;;4.57;;
7965;SDS011;4028;43.272;26.932;2024-03-23T10:34:39;5.22;;;4.65;;
7965;SDS011;4028;43.272;26.932;2024-03-23T10:37:05;7.03;;;5.30;;
7965;SDS011;4028;43.272;26.932;2024-03-23T10:39:35;5.47;;;4.90;;
7965;SDS011;4028;43.272;26.932;2024-03-23T10:42:05;4.90;;;4.38;;
7965;SDS011;4028;43.272;26.932;2024-03-23T10:44:32;5.63;;;5.03;;
7965;SDS011;4028;43.272;26.932;2024-03-23T10:46:58;7.70;;;5.03;;
7965;SDS011;4028;43.272;26.932;2024-03-23T10:49:29;5.82;;;5.00;;
7965;SDS011;4028;43.272;26.932;2024-03-23T10:51:58;5.30;;;4.90;;
7965;SDS011;4028;43.272;26.932;2024-03-23T10:54:25;5.50;;;4.80;;
7965;SDS011;4028;43.272;26.932;2024-03-23T10:56:53;7.10;;;4.88;;
7965;SDS011;4028;43.272;26.932;2024-03-23T10:59:40;4.95;;;4.55;;
7965;SDS011;4028;43.272;26.932;2024-03-23T11:02:07;6.47;;;4.78;;
7965;SDS011;4028;43.272;26.932;2024-03-23T11:04:43;4.57;;;4.18;;
7965;SDS011;4028;43.272;26.932;2024-03-23T11:09:49;5.00;;;3.95;;
7965;SDS011;4028;43.272;26.932;2024-03-23T11:12:18;5.10;;;4.60;;
7965;SDS011;4028;43.272;26.932;2024-03-23T11:15:01;6.70;;;4.50;;
7965;SDS011;4028;43.272;26.932;2024-03-23T11:17:27;5.10;;;4.60;;
7965;SDS011;4028;43.272;26.932;2024-03-23T11:27:43;3.95;;;3.65;;
7965;SDS011;4028;43.272;26.932;2024-03-23T11:30:14;5.88;;;4.75;;
7965;SDS011;4028;43.272;26.932;2024-03-23T11:32:50;4.43;;;4.03;;
7965;SDS011;4028;43.272;26.932;2024-03-23T11:35:25;4.28;;;3.88;;
7965;SDS011;4028;43.272;26.932;2024-03-23T11:40:30;5.68;;;4.20;;
7965;SDS011;4028;43.272;26.932;2024-03-23T11:42:58;4.68;;;3.65;;
7965;SDS011;4028;43.272;26.932;2024-03-23T11:45:24;3.90;;;3.53;;
7965;SDS011;4028;43.272;26.932;2024-03-23T11:48:01;4.22;;;3.83;;
7965;SDS011;4028;43.272;26.932;2024-03-23T11:50:32;4.03;;;3.70;;
7965;SDS011;4028;43.272;26.932;2024-03-23T11:55:50;4.22;;;3.60;;
7965;SDS011;4028;43.272;26.932;2024-03-23T11:58:21;4.15;;;3.75;;
7965;SDS011;4028;43.272;26.932;2024-03-23T12:00:58;4.07;;;3.75;;
7965;SDS011;4028;43.272;26.932;2024-03-23T12:03:25;6.30;;;3.85;;
7965;SDS011;4028;43.272;26.932;2024-03-23T12:05:53;4.13;;;3.70;;
7965;SDS011;4028;43.272;26.932;2024-03-23T12:08:33;4.38;;;3.97;;
7965;SDS011;4028;43.272;26.932;2024-03-23T12:13:39;4.28;;;3.50;;
7965;SDS011;4028;43.272;26.932;2024-03-23T12:16:10;4.57;;;4.00;;
7965;SDS011;4028;43.272;26.932;2024-03-23T12:18:37;4.05;;;3.65;;
7965;SDS011;4028;43.272;26.932;2024-03-23T12:21:03;3.92;;;3.63;;
7965;SDS011;4028;43.272;26.932;2024-03-23T12:23:29;4.38;;;3.67;;
7965;SDS011;4028;43.272;26.932;2024-03-23T12:25:54;3.72;;;3.40;;
7965;SDS011;4028;43.272;26.932;2024-03-23T12:28:20;4.75;;;3.80;;
7965;SDS011;4028;43.272;26.932;2024-03-23T12:30:45;5.43;;;3.80;;
7965;SDS011;4028;43.272;26.932;2024-03-23T12:33:11;4.35;;;3.95;;
7965;SDS011;4028;43.272;26.932;2024-03-23T12:35:37;3.88;;;3.58;;
7965;SDS011;4028;43.272;26.932;2024-03-23T12:38:02;3.97;;;3.55;;
7965;SDS011;4028;43.272;26.932;2024-03-23T12:40:28;3.55;;;3.30;;
7965;SDS011;4028;43.272;26.932;2024-03-23T12:42:53;4.20;;;3.78;;
7965;SDS011;4028;43.272;26.932;2024-03-23T12:45:20;4.13;;;3.67;;
7965;SDS011;4028;43.272;26.932;2024-03-23T12:47:45;4.15;;;3.80;;
7965;SDS011;4028;43.272;26.932;2024-03-23T12:50:10;3.70;;;3.40;;
7965;SDS011;4028;43.272;26.932;2024-03-23T12:52:36;5.70;;;3.85;;
7965;SDS011;4028;43.272;26.932;2024-03-23T12:55:02;3.97;;;3.63;;
7965;SDS011;4028;43.272;26.932;2024-03-23T12:57:30;3.38;;;3.15;;
7965;SDS011;4028;43.272;26.932;2024-03-23T12:59:56;5.13;;;3.60;;
7965;SDS011;4028;43.272;26.932;2024-03-23T13:02:22;4.03;;;3.65;;
7965;SDS011;4028;43.272;26.932;2024-03-23T13:04:51;4.57;;;3.97;;
7965;SDS011;4028;43.272;26.932;2024-03-23T13:07:20;3.78;;;3.47;;
7965;SDS011;4028;43.272;26.932;2024-03-23T13:09:47;3.88;;;3.50;;
7965;SDS011;4028;43.272;26.932;2024-03-23T13:12:12;3.97;;;3.50;;
7965;SDS011;4028;43.272;26.932;2024-03-23T13:14:41;4.00;;;3.70;;
7965;SDS011;4028;43.272;26.932;2024-03-23T13:17:07;4.20;;;3.65;;
7965;SDS011;4028;43.272;26.932;2024-03-23T13:19:33;6.00;;;4.10;;
7965;SDS011;4028;43.272;26.932;2024-03-23T13:21:59;4.50;;;3.63;;
7965;SDS011;4028;43.272;26.932;2024-03-23T13:24:25;3.95;;;3.35;;
7965;SDS011;4028;43.272;26.932;2024-03-23T13:26:55;5.13;;;4.15;;
7965;SDS011;4028;43.272;26.932;2024-03-23T13:29:21;3.83;;;3.45;;
7965;SDS011;4028;43.272;26.932;2024-03-23T13:31:48;3.92;;;3.63;;
7965;SDS011;4028;43.272;26.932;2024-03-23T13:34:15;4.05;;;3.60;;
7965;SDS011;4028;43.272;26.932;2024-03-23T13:36:41;3.10;;;2.80;;
7965;SDS011;4028;43.272;26.932;2024-03-23T13:39:07;4.88;;;3.00;;
7965;SDS011;4028;43.272;26.932;2024-03-23T13:41:42;3.60;;;3.30;;
7965;SDS011;4028;43.272;26.932;2024-03-23T13:44:11;3.50;;;3.20;;
7965;SDS011;4028;43.272;26.932;2024-03-23T13:46:40;4.15;;;3.60;;
7965;SDS011;4028;43.272;26.932;2024-03-23T13:49:29;3.55;;;3.25;;
7965;SDS011;4028;43.272;26.932;2024-03-23T13:51:56;3.80;;;3.40;;
7965;SDS011;4028;43.272;26.932;2024-03-23T13:54:25;4.60;;;3.08;;
7965;SDS011;4028;43.272;26.932;2024-03-23T13:56:51;4.38;;;3.35;;
7965;SDS011;4028;43.272;26.932;2024-03-23T13:59:18;6.07;;;3.88;;
7965;SDS011;4028;43.272;26.932;2024-03-23T14:01:44;5.32;;;3.55;;
7965;SDS011;4028;43.272;26.932;2024-03-23T14:04:10;3.67;;;3.33;;
7965;SDS011;4028;43.272;26.932;2024-03-23T14:06:36;4.28;;;3.53;;
7965;SDS011;4028;43.272;26.932;2024-03-23T14:09:02;3.85;;;3.42;;
7965;SDS011;4028;43.272;26.932;2024-03-23T14:11:28;3.45;;;3.15;;
7965;SDS011;4028;43.272;26.932;2024-03-23T14:13:54;5.13;;;3.38;;
7965;SDS011;4028;43.272;26.932;2024-03-23T14:16:20;4.10;;;3.47;;
7965;SDS011;4028;43.272;26.932;2024-03-23T14:18:48;3.60;;;3.30;;
7965;SDS011;4028;43.272;26.932;2024-03-23T14:21:14;4.68;;;3.55;;
7965;SDS011;4028;43.272;26.932;2024-03-23T14:23:39;4.18;;;3.78;;
7965;SDS011;4028;43.272;26.932;2024-03-23T14:26:07;3.95;;;3.58;;
7965;SDS011;4028;43.272;26.932;2024-03-23T14:28:33;3.95;;;3.58;;
7965;SDS011;4028;43.272;26.932;2024-03-23T14:31:00;5.43;;;4.00;;
7965;SDS011;4028;43.272;26.932;2024-03-23T14:33:26;3.88;;;3.55;;
7965;SDS011;4028;43.272;26.932;2024-03-23T14:35:52;4.35;;;3.63;;
7965;SDS011;4028;43.272;26.932;2024-03-23T14:38:22;3.80;;;3.40;;
7965;SDS011;4028;43.272;26.932;2024-03-23T14:40:48;4.82;;;3.80;;
7965;SDS011;4028;43.272;26.932;2024-03-23T14:43:14;5.47;;;4.15;;
7965;SDS011;4028;43.272;26.932;2024-03-23T14:48:34;7.55;;;6.97;;
7965;SDS011;4028;43.272;26.932;2024-03-23T14:51:00;3.88;;;3.58;;
7965;SDS011;4028;43.272;26.932;2024-03-23T14:53:29;4.70;;;4.25;;
7965;SDS011;4028;43.272;26.932;2024-03-23T14:55:56;5.60;;;3.70;;
7965;SDS011;4028;43.272;26.932;2024-03-23T14:58:21;6.10;;;4.07;;
7965;SDS011;4028;43.272;26.932;2024-03-23T15:00:48;3.72;;;3.42;;
7965;SDS011;4028;43.272;26.932;2024-03-23T15:03:14;3.72;;;3.42;;
7965;SDS011;4028;43.272;26.932;2024-03-23T15:05:39;4.63;;;3.88;;
7965;SDS011;4028;43.272;26.932;2024-03-23T15:08:05;5.20;;;4.40;;
7965;SDS011;4028;43.272;26.932;2024-03-23T15:10:32;4.55;;;4.13;;
7965;SDS011;4028;43.272;26.932;2024-03-23T15:12:58;4.00;;;3.60;;
7965;SDS011;4028;43.272;26.932;2024-03-23T15:15:23;5.07;;;4.03;;
7965;SDS011;4028;43.272;26.932;2024-03-23T15:17:49;4.88;;;3.38;;
7965;SDS011;4028;43.272;26.932;2024-03-23T15:20:15;4.28;;;3.60;;
7965;SDS011;4028;43.272;26.932;2024-03-23T15:22:41;5.97;;;3.65;;
7965;SDS011;4028;43.272;26.932;2024-03-23T15:25:07;4.40;;;3.85;;
7965;SDS011;4028;43.272;26.932;2024-03-23T15:27:33;3.90;;;3.58;;
7965;SDS011;4028;43.272;26.932;2024-03-23T15:29:59;5.70;;;4.05;;
7965;SDS011;4028;43.272;26.932;2024-03-23T15:32:24;4.50;;;4.10;;
7965;SDS011;4028;43.272;26.932;2024-03-23T15:34:50;4.20;;;3.80;;
7965;SDS011;4028;43.272;26.932;2024-03-23T15:37:15;3.80;;;3.50;;
7965;SDS011;4028;43.272;26.932;2024-03-23T15:39:41;4.88;;;3.45;;
7965;SDS011;4028;43.272;26.932;2024-03-23T15:42:06;5.03;;;3.42;;
7965;SDS011;4028;43.272;26.932;2024-03-23T15:44:32;3.58;;;3.25;;
7965;SDS011;4028;43.272;26.932;2024-03-23T15:46:58;4.18;;;3.35;;
7965;SDS011;4028;43.272;26.932;2024-03-23T15:49:24;5.70;;;4.38;;
7965;SDS011;4028;43.272;26.932;2024-03-23T15:51:49;4.70;;;3.95;;
7965;SDS011;4028;43.272;26.932;2024-03-23T15:54:14;6.38;;;4.40;;
7965;SDS011;4028;43.272;26.932;2024-03-23T15:56:40;5.78;;;4.40;;
7965;SDS011;4028;43.272;26.932;2024-03-23T15:59:05;6.90;;;4.10;;
7965;SDS011;4028;43.272;26.932;2024-03-23T16:01:32;4.88;;;4.00;;